Terminal Aerodrome Forecast
Issued by NWS Wakefield, VA

Home | Current Version | Previous Version | Text Only | Print | Product List | Glossary On
Versions: 1 2 3 4 5 6 7 8 9 10 11 12 13
371
FTUS41 KAKQ 221120
TAFRIC
TAF
KRIC 221120Z 2212/2312 18005KT P6SM BKN035 OVC150
     FM221500 21006KT P6SM VCSH OVC040
     FM222100 19005KT P6SM OVC050
     FM230500 VRB03KT 4SM BR BKN030=

USA.gov is the U.S. government's official web portal to all federal, state and local government web resources and services.